Latest Weather Observations for Little Bay

IDN60801

Issued at 2:34 pm EST Wednesday 8 July 2015 (issued every 30 minutes, with the page automatically refreshed every 10 minutes)

About weather observations | Map of weather stations | Latest weather observations for NSW | Other Formats
Station Details ID: 066051 Name: LITTLE BAY (THE COAST GOLF CLUB) Lat: -33.98 Lon: 151.25 Height: 22.0 m
Data from the previous 72 hours. | See also: Recent months for locations in New South Wales
Date/Time
EST
Temp
°C
App
Temp
°C
Dew
Point
Rel
Hum
%
Delta-T
°C
Wind Press
QNH
hPa
Press
MSL
hPa
Rain
since 9 am
mm
Dir
 
Spd
km/h
Gust
km/h
Spd
kts
Gust
kts
08/02:30pm - - - - - SSE 17 22 9 12 - - -
08/02:00pm - - - - - SSE 19 24 10 13 - - -
08/01:30pm - - - - - S 15 20 8 11 - - -
08/01:00pm - - - - - SSE 15 20 8 11 - - -
08/12:30pm - - - - - SSE 17 24 9 13 - - -
08/12:00pm - - - - - S 17 22 9 12 - - -
08/11:30am - - - - - WSW 7 13 4 7 - - -
08/11:00am - - - - - W 9 13 5 7 - - -
08/10:30am - - - - - W 9 13 5 7 - - -
08/10:00am - - - - - W 13 17 7 9 - - -
08/09:30am - - - - - W 11 15 6 8 - - -
08/09:00am - - - - - W 15 19 8 10 - - -
08/08:30am - - - - - W 9 13 5 7 - - -
08/08:00am - - - - - WNW 9 15 5 8 - - -
08/07:30am - - - - - WSW 2 7 1 4 - - -
08/07:00am - - - - - WSW 6 9 3 5 - - -
08/06:30am - - - - - WSW 7 11 4 6 - - -
08/06:00am - - - - - SW 11 19 6 10 - - -
08/05:30am - - - - - SW 13 19 7 10 - - -
08/05:00am - - - - - SW 13 20 7 11 - - -
08/04:30am - - - - - WSW 9 13 5 7 - - -
08/04:00am - - - - - WSW 11 15 6 8 - - -
08/03:30am - - - - - SSW 7 15 4 8 - - -
08/03:00am - - - - - SSW 15 35 8 19 - - -
08/02:30am - - - - - S 28 35 15 19 - - -
08/02:00am - - - - - SSW 11 20 6 11 - - -
08/01:30am - - - - - S 17 26 9 14 - - -
08/01:00am - - - - - S 22 30 12 16 - - -
08/12:30am - - - - - S 20 28 11 15 - - -
08/12:00am - - - - - S 24 43 13 23 - - -
 
Date/Time
EST
Temp
°C
App
Temp
°C
Dew
Point
Rel
Hum
%
Delta-T
°C
Wind Press
QNH
hPa
Press
MSL
hPa
Rain
since 9 am
mm
Dir
 
Spd
km/h
Gust
km/h
Spd
kts
Gust
kts
07/11:30pm - - - - - SSW 13 24 7 13 - - -
07/11:00pm - - - - - SW 15 24 8 13 - - -
07/10:30pm - - - - - S 22 32 12 17 - - -
07/10:00pm - - - - - W 11 17 6 9 - - -
07/09:30pm - - - - - SSW 13 32 7 17 - - -
07/09:00pm - - - - - SSW 15 26 8 14 - - -
07/08:30pm - - - - - S 17 26 9 14 - - -
07/08:11pm - - - - - SSW 19 44 10 24 - - -
07/08:00pm - - - - - SW 9 13 5 7 - - -
07/07:30pm - - - - - SW 11 32 6 17 - - -
07/07:00pm - - - - - SSW 9 19 5 10 - - -
07/06:30pm - - - - - SSW 24 35 13 19 - - -
07/06:00pm - - - - - SSW 13 26 7 14 - - -
07/05:30pm - - - - - SSW 22 41 12 22 - - -
07/05:00pm - - - - - SSW 20 32 11 17 - - -
07/04:30pm - - - - - SSW 15 22 8 12 - - -
07/04:00pm - - - - - SSW 28 43 15 23 - - -
07/03:53pm - - - - - SSW 19 43 10 23 - - -
07/03:30pm - - - - - SSW 11 19 6 10 - - -
07/03:00pm - - - - - SSW 19 28 10 15 - - -
07/02:30pm - - - - - SSW 20 30 11 16 - - -
07/02:00pm - - - - - S 26 37 14 20 - - -
07/01:30pm - - - - - SSW 22 32 12 17 - - -
07/01:00pm - - - - - SSW 22 32 12 17 - - -
07/12:30pm - - - - - SSW 26 37 14 20 - - -
07/12:00pm - - - - - SSW 24 33 13 18 - - -
07/11:30am - - - - - SSW 24 35 13 19 - - -
07/11:00am - - - - - SSW 28 39 15 21 - - -
07/10:30am - - - - - SSW 33 44 18 24 - - -
07/10:00am - - - - - SSW 26 41 14 22 - - -
07/09:30am - - - - - SW 15 32 8 17 - - -
07/09:00am - - - - - SW 13 19 7 10 - - -
07/08:30am - - - - - WSW 13 19 7 10 - - -
07/08:00am - - - - - WSW 15 28 8 15 - - -
07/07:30am - - - - - W 15 22 8 12 - - -
07/07:00am - - - - - WNW 15 20 8 11 - - -
07/06:30am - - - - - WNW 15 20 8 11 - - -
07/06:00am - - - - - WNW 13 19 7 10 - - -
07/05:30am - - - - - WNW 11 15 6 8 - - -
07/05:00am - - - - - WNW 13 19 7 10 - - -
07/04:30am - - - - - NW 13 19 7 10 - - -
07/04:00am - - - - - WNW 17 22 9 12 - - -
07/03:30am - - - - - WNW 19 24 10 13 - - -
07/03:00am - - - - - WNW 15 19 8 10 - - -
07/02:30am - - - - - WNW 11 17 6 9 - - -
07/02:00am - - - - - WNW 15 24 8 13 - - -
07/01:30am - - - - - W 19 32 10 17 - - -
07/01:00am - - - - - W 19 28 10 15 - - -
07/12:30am - - - - - W 20 28 11 15 - - -
07/12:00am - - - - - W 19 24 10 13 - - -
 
Date/Time
EST
Temp
°C
App
Temp
°C
Dew
Point
Rel
Hum
%
Delta-T
°C
Wind Press
QNH
hPa
Press
MSL
hPa
Rain
since 9 am
mm
Dir
 
Spd
km/h
Gust
km/h
Spd
kts
Gust
kts
06/11:30pm - - - - - W 19 28 10 15 - - -
06/11:00pm - - - - - W 15 28 8 15 - - -
06/10:30pm - - - - - W 17 24 9 13 - - -
06/10:00pm - - - - - W 17 30 9 16 - - -
06/09:30pm - - - - - W 17 24 9 13 - - -
06/09:00pm - - - - - W 15 22 8 12 - - -
06/08:30pm - - - - - W 17 26 9 14 - - -
06/08:00pm - - - - - W 15 24 8 13 - - -
06/07:30pm - - - - - W 15 22 8 12 - - -
06/07:00pm - - - - - W 15 24 8 13 - - -
06/06:30pm - - - - - WSW 15 22 8 12 - - -
06/06:00pm - - - - - WSW 19 28 10 15 - - -
06/05:30pm - - - - - WSW 15 28 8 15 - - -
06/05:00pm - - - - - WSW 20 35 11 19 - - -
06/04:30pm - - - - - W 15 28 8 15 - - -
06/04:00pm - - - - - W 13 24 7 13 - - -
06/03:30pm - - - - - WSW 19 32 10 17 - - -
06/03:00pm - - - - - WSW 17 28 9 15 - - -
06/02:30pm - - - - - W 19 32 10 17 - - -
06/02:00pm - - - - - W 17 30 9 16 - - -
06/01:30pm - - - - - WSW 20 28 11 15 - - -
06/01:00pm - - - - - WNW 15 24 8 13 - - -
06/12:30pm - - - - - WNW 17 22 9 12 - - -
06/12:00pm - - - - - W 15 22 8 12 - - -
06/11:30am - - - - - W 22 33 12 18 - - -
06/11:00am - - - - - W 20 28 11 15 - - -
06/10:30am - - - - - W 20 28 11 15 - - -
06/10:00am - - - - - W 17 24 9 13 - - -
06/09:30am - - - - - WNW 15 22 8 12 - - -
06/09:00am - - - - - WNW 13 20 7 11 - - -
06/08:30am - - - - - WNW 17 22 9 12 - - -
06/08:00am - - - - - WNW 13 20 7 11 - - -
06/07:30am - - - - - WNW 9 15 5 8 - - -
06/07:00am - - - - - WNW 11 15 6 8 - - -
06/06:30am - - - - - WNW 17 22 9 12 - - -
06/06:00am - - - - - WNW 15 22 8 12 - - -
06/05:30am - - - - - W 9 15 5 8 - - -
06/05:00am - - - - - WNW 11 17 6 9 - - -
06/04:30am - - - - - WNW 15 20 8 11 - - -
06/04:00am - - - - - WNW 17 22 9 12 - - -
06/03:30am - - - - - WNW 15 20 8 11 - - -
06/03:00am - - - - - WNW 15 24 8 13 - - -
06/02:30am - - - - - WNW 15 20 8 11 - - -
06/02:00am - - - - - WNW 15 20 8 11 - - -
06/01:30am - - - - - WNW 15 19 8 10 - - -
06/01:00am - - - - - WNW 15 22 8 12 - - -
06/12:30am - - - - - WNW 17 24 9 13 - - -
06/12:00am - - - - - WNW 15 22 8 12 - - -
 
Date/Time
EST
Temp
°C
App
Temp
°C
Dew
Point
Rel
Hum
%
Delta-T
°C
Wind Press
QNH
hPa
Press
MSL
hPa
Rain
since 9 am
mm
Dir
 
Spd
km/h
Gust
km/h
Spd
kts
Gust
kts
05/11:30pm - - - - - WNW 19 24 10 13 - - -
05/11:00pm - - - - - WNW 13 19 7 10 - - -
05/10:30pm - - - - - WNW 11 17 6 9 - - -
05/10:00pm - - - - - WNW 7 9 4 5 - - -
05/09:30pm - - - - - WNW 6 7 3 4 - - -
05/09:00pm - - - - - WNW 6 7 3 4 - - -
05/08:30pm - - - - - WNW 7 9 4 5 - - -
05/08:00pm - - - - - CALM 0 2 0 1 - - -
05/07:30pm - - - - - WNW 6 7 3 4 - - -
05/07:00pm - - - - - WNW 6 7 3 4 - - -
05/06:30pm - - - - - NW 7 11 4 6 - - -
05/06:00pm - - - - - NNW 7 9 4 5 - - -
05/05:30pm - - - - - N 7 9 4 5 - - -
05/05:00pm - - - - - N 6 7 3 4 - - -
05/04:30pm - - - - - N 6 9 3 5 - - -
05/04:00pm - - - - - NNE 9 13 5 7 - - -
05/03:30pm - - - - - NNE 9 11 5 6 - - -
05/03:00pm - - - - - NNE 7 11 4 6 - - -

Other Formats:

Comma delimited format used in spreadsheet applications
http://www.bom.gov.au/fwo/IDN60801/IDN60801.94780.axf

JavaScript Object Notation format (JSON) in row-major order
http://www.bom.gov.au/fwo/IDN60801/IDN60801.94780.json